sensor_id;sensor_type;location;lat;lon;timestamp;temperature;humidity
35607;DHT22;21729;58.392;15.656;2023-05-02T00:00:57;6.10;99.90
35607;DHT22;21729;58.392;15.656;2023-05-02T00:03:26;6.10;99.90
35607;DHT22;21729;58.392;15.656;2023-05-02T00:05:54;6.00;99.90
35607;DHT22;21729;58.392;15.656;2023-05-02T00:08:23;6.00;99.90
35607;DHT22;21729;58.392;15.656;2023-05-02T00:10:50;5.80;99.90
35607;DHT22;21729;58.392;15.656;2023-05-02T00:13:17;5.70;99.90
35607;DHT22;21729;58.392;15.656;2023-05-02T00:15:44;5.70;99.90
35607;DHT22;21729;58.392;15.656;2023-05-02T00:18:13;5.60;99.90
35607;DHT22;21729;58.392;15.656;2023-05-02T00:20:40;5.50;99.90
35607;DHT22;21729;58.392;15.656;2023-05-02T00:23:07;5.40;99.90
35607;DHT22;21729;58.392;15.656;2023-05-02T00:25:36;5.30;99.90
35607;DHT22;21729;58.392;15.656;2023-05-02T00:28:09;5.30;99.90
35607;DHT22;21729;58.392;15.656;2023-05-02T00:30:40;5.20;99.90
35607;DHT22;21729;58.392;15.656;2023-05-02T00:33:08;5.20;99.90
35607;DHT22;21729;58.392;15.656;2023-05-02T00:35:38;5.30;99.90
35607;DHT22;21729;58.392;15.656;2023-05-02T00:38:05;5.20;99.90
35607;DHT22;21729;58.392;15.656;2023-05-02T00:40:42;5.10;99.90
35607;DHT22;21729;58.392;15.656;2023-05-02T00:43:10;5.10;99.90
35607;DHT22;21729;58.392;15.656;2023-05-02T00:45:38;5.00;99.90
35607;DHT22;21729;58.392;15.656;2023-05-02T00:48:06;5.00;99.90
35607;DHT22;21729;58.392;15.656;2023-05-02T00:50:35;5.00;99.90
35607;DHT22;21729;58.392;15.656;2023-05-02T00:53:04;5.00;99.90
35607;DHT22;21729;58.392;15.656;2023-05-02T00:55:32;4.90;99.90
35607;DHT22;21729;58.392;15.656;2023-05-02T00:58:00;4.90;99.90
35607;DHT22;21729;58.392;15.656;2023-05-02T01:00:32;4.80;99.90
35607;DHT22;21729;58.392;15.656;2023-05-02T01:03:11;4.70;99.90
35607;DHT22;21729;58.392;15.656;2023-05-02T01:05:48;4.80;99.90
35607;DHT22;21729;58.392;15.656;2023-05-02T01:08:24;4.70;99.90
35607;DHT22;21729;58.392;15.656;2023-05-02T01:11:01;4.70;99.90
35607;DHT22;21729;58.392;15.656;2023-05-02T01:13:32;4.70;99.90
35607;DHT22;21729;58.392;15.656;2023-05-02T01:16:02;4.70;99.90
35607;DHT22;21729;58.392;15.656;2023-05-02T01:18:32;4.60;99.90
35607;DHT22;21729;58.392;15.656;2023-05-02T01:21:02;4.60;99.90
35607;DHT22;21729;58.392;15.656;2023-05-02T01:23:38;4.50;99.90
35607;DHT22;21729;58.392;15.656;2023-05-02T01:26:14;4.50;99.90
35607;DHT22;21729;58.392;15.656;2023-05-02T01:28:56;4.50;99.90
35607;DHT22;21729;58.392;15.656;2023-05-02T01:31:25;4.50;99.90
35607;DHT22;21729;58.392;15.656;2023-05-02T01:33:53;4.50;99.90
35607;DHT22;21729;58.392;15.656;2023-05-02T01:36:22;4.50;99.90
35607;DHT22;21729;58.392;15.656;2023-05-02T01:38:52;4.50;99.90
35607;DHT22;21729;58.392;15.656;2023-05-02T01:41:22;4.50;99.90
35607;DHT22;21729;58.392;15.656;2023-05-02T01:43:53;4.50;99.90
35607;DHT22;21729;58.392;15.656;2023-05-02T01:46:21;4.40;99.90
35607;DHT22;21729;58.392;15.656;2023-05-02T01:48:51;4.40;99.90
35607;DHT22;21729;58.392;15.656;2023-05-02T01:51:19;4.40;99.90
35607;DHT22;21729;58.392;15.656;2023-05-02T01:53:47;4.40;99.90
35607;DHT22;21729;58.392;15.656;2023-05-02T01:56:17;4.40;99.90
35607;DHT22;21729;58.392;15.656;2023-05-02T01:58:46;4.40;99.90
35607;DHT22;21729;58.392;15.656;2023-05-02T02:01:16;4.30;99.90
35607;DHT22;21729;58.392;15.656;2023-05-02T02:03:44;4.30;99.90
35607;DHT22;21729;58.392;15.656;2023-05-02T02:06:12;4.30;99.90
35607;DHT22;21729;58.392;15.656;2023-05-02T02:08:40;4.30;99.90
35607;DHT22;21729;58.392;15.656;2023-05-02T02:11:09;4.30;99.90
35607;DHT22;21729;58.392;15.656;2023-05-02T02:13:42;4.30;99.90
35607;DHT22;21729;58.392;15.656;2023-05-02T02:16:17;4.30;99.90
35607;DHT22;21729;58.392;15.656;2023-05-02T02:18:45;4.30;99.90
35607;DHT22;21729;58.392;15.656;2023-05-02T02:21:17;4.30;99.90
35607;DHT22;21729;58.392;15.656;2023-05-02T02:23:47;4.30;99.90
35607;DHT22;21729;58.392;15.656;2023-05-02T02:26:19;4.30;99.90
35607;DHT22;21729;58.392;15.656;2023-05-02T02:28:47;4.30;99.90
35607;DHT22;21729;58.392;15.656;2023-05-02T02:31:16;4.30;99.90
35607;DHT22;21729;58.392;15.656;2023-05-02T02:33:43;4.20;99.90
35607;DHT22;21729;58.392;15.656;2023-05-02T02:36:14;4.20;99.90
35607;DHT22;21729;58.392;15.656;2023-05-02T02:38:48;4.20;99.90
35607;DHT22;21729;58.392;15.656;2023-05-02T02:41:22;4.20;99.90
35607;DHT22;21729;58.392;15.656;2023-05-02T02:43:59;4.20;99.90
35607;DHT22;21729;58.392;15.656;2023-05-02T02:46:41;4.10;99.90
35607;DHT22;21729;58.392;15.656;2023-05-02T02:49:21;4.10;99.90
35607;DHT22;21729;58.392;15.656;2023-05-02T02:51:57;4.20;99.90
35607;DHT22;21729;58.392;15.656;2023-05-02T02:54:32;4.20;99.90
35607;DHT22;21729;58.392;15.656;2023-05-02T02:57:06;4.20;99.90
35607;DHT22;21729;58.392;15.656;2023-05-02T02:59:43;4.20;99.90
35607;DHT22;21729;58.392;15.656;2023-05-02T03:02:16;4.20;99.90
35607;DHT22;21729;58.392;15.656;2023-05-02T03:04:45;4.20;99.90
35607;DHT22;21729;58.392;15.656;2023-05-02T03:07:13;4.10;99.90
35607;DHT22;21729;58.392;15.656;2023-05-02T03:09:41;4.10;99.90
35607;DHT22;21729;58.392;15.656;2023-05-02T03:12:08;4.20;99.90
35607;DHT22;21729;58.392;15.656;2023-05-02T03:14:36;4.20;99.90
35607;DHT22;21729;58.392;15.656;2023-05-02T03:17:03;4.20;99.90
35607;DHT22;21729;58.392;15.656;2023-05-02T03:19:32;4.20;99.90
35607;DHT22;21729;58.392;15.656;2023-05-02T03:21:59;4.20;99.90
35607;DHT22;21729;58.392;15.656;2023-05-02T03:24:26;4.10;99.90
35607;DHT22;21729;58.392;15.656;2023-05-02T03:26:54;4.10;99.90
35607;DHT22;21729;58.392;15.656;2023-05-02T03:29:22;4.10;99.90
35607;DHT22;21729;58.392;15.656;2023-05-02T03:31:49;4.00;70.70
35607;DHT22;21729;58.392;15.656;2023-05-02T03:34:16;4.10;95.60
35607;DHT22;21729;58.392;15.656;2023-05-02T03:36:45;4.20;99.90
35607;DHT22;21729;58.392;15.656;2023-05-02T03:39:14;4.10;99.90
35607;DHT22;21729;58.392;15.656;2023-05-02T03:41:41;4.10;99.90
35607;DHT22;21729;58.392;15.656;2023-05-02T03:44:08;4.10;99.90
35607;DHT22;21729;58.392;15.656;2023-05-02T03:46:35;4.20;99.90
35607;DHT22;21729;58.392;15.656;2023-05-02T03:49:02;4.10;99.90
35607;DHT22;21729;58.392;15.656;2023-05-02T03:51:29;4.20;99.90
35607;DHT22;21729;58.392;15.656;2023-05-02T03:54:01;4.20;99.90
35607;DHT22;21729;58.392;15.656;2023-05-02T03:56:28;4.20;99.90
35607;DHT22;21729;58.392;15.656;2023-05-02T03:58:55;4.20;99.90
35607;DHT22;21729;58.392;15.656;2023-05-02T04:01:22;4.10;99.90
35607;DHT22;21729;58.392;15.656;2023-05-02T04:03:50;4.10;99.90
35607;DHT22;21729;58.392;15.656;2023-05-02T04:06:18;4.10;99.90
35607;DHT22;21729;58.392;15.656;2023-05-02T04:08:45;4.20;99.90
35607;DHT22;21729;58.392;15.656;2023-05-02T04:11:13;4.10;99.90
35607;DHT22;21729;58.392;15.656;2023-05-02T04:13:40;4.10;99.90
35607;DHT22;21729;58.392;15.656;2023-05-02T04:16:08;4.10;99.90
35607;DHT22;21729;58.392;15.656;2023-05-02T04:18:35;4.10;32.10
35607;DHT22;21729;58.392;15.656;2023-05-02T04:21:03;4.00;1.00
35607;DHT22;21729;58.392;15.656;2023-05-02T04:23:30;4.00;12.50
35607;DHT22;21729;58.392;15.656;2023-05-02T04:25:57;4.00;11.30
35607;DHT22;21729;58.392;15.656;2023-05-02T04:28:25;4.10;23.60
35607;DHT22;21729;58.392;15.656;2023-05-02T04:30:53;4.10;23.80
35607;DHT22;21729;58.392;15.656;2023-05-02T04:33:20;4.20;10.00
35607;DHT22;21729;58.392;15.656;2023-05-02T04:35:47;4.10;1.00
35607;DHT22;21729;58.392;15.656;2023-05-02T04:38:14;4.10;1.00
35607;DHT22;21729;58.392;15.656;2023-05-02T04:40:42;4.20;1.00
35607;DHT22;21729;58.392;15.656;2023-05-02T04:43:09;4.00;1.00
35607;DHT22;21729;58.392;15.656;2023-05-02T04:45:38;4.00;1.00
35607;DHT22;21729;58.392;15.656;2023-05-02T04:48:05;4.10;7.60
35607;DHT22;21729;58.392;15.656;2023-05-02T04:50:32;4.00;1.00
35607;DHT22;21729;58.392;15.656;2023-05-02T04:52:59;4.00;1.00
35607;DHT22;21729;58.392;15.656;2023-05-02T04:55:26;3.90;1.00
35607;DHT22;21729;58.392;15.656;2023-05-02T04:57:53;4.00;18.00
35607;DHT22;21729;58.392;15.656;2023-05-02T05:00:20;4.00;24.20
35607;DHT22;21729;58.392;15.656;2023-05-02T05:02:49;4.00;18.10
35607;DHT22;21729;58.392;15.656;2023-05-02T05:05:16;3.90;4.20
35607;DHT22;21729;58.392;15.656;2023-05-02T05:07:43;3.90;5.20
35607;DHT22;21729;58.392;15.656;2023-05-02T05:10:10;4.00;6.70
35607;DHT22;21729;58.392;15.656;2023-05-02T05:12:37;4.10;1.00
35607;DHT22;21729;58.392;15.656;2023-05-02T05:15:06;4.10;1.00
35607;DHT22;21729;58.392;15.656;2023-05-02T05:17:33;4.20;1.00
35607;DHT22;21729;58.392;15.656;2023-05-02T05:20:02;4.10;1.00
35607;DHT22;21729;58.392;15.656;2023-05-02T05:22:30;4.00;1.00
35607;DHT22;21729;58.392;15.656;2023-05-02T05:24:57;4.00;1.00
35607;DHT22;21729;58.392;15.656;2023-05-02T05:27:24;4.00;1.00
35607;DHT22;21729;58.392;15.656;2023-05-02T05:29:51;4.00;1.00
35607;DHT22;21729;58.392;15.656;2023-05-02T05:32:18;4.10;1.00
35607;DHT22;21729;58.392;15.656;2023-05-02T05:34:50;4.00;1.00
35607;DHT22;21729;58.392;15.656;2023-05-02T05:37:19;4.00;1.00
35607;DHT22;21729;58.392;15.656;2023-05-02T05:39:46;4.00;1.00
35607;DHT22;21729;58.392;15.656;2023-05-02T05:42:13;4.00;1.00
35607;DHT22;21729;58.392;15.656;2023-05-02T05:44:40;3.90;1.00
35607;DHT22;21729;58.392;15.656;2023-05-02T05:47:07;4.00;1.00
35607;DHT22;21729;58.392;15.656;2023-05-02T05:49:35;4.00;1.00
35607;DHT22;21729;58.392;15.656;2023-05-02T05:52:02;4.10;1.00
35607;DHT22;21729;58.392;15.656;2023-05-02T05:54:30;4.30;1.00
35607;DHT22;21729;58.392;15.656;2023-05-02T05:56:57;4.30;1.00
35607;DHT22;21729;58.392;15.656;2023-05-02T05:59:24;4.30;1.00
35607;DHT22;21729;58.392;15.656;2023-05-02T06:01:52;4.50;1.00
35607;DHT22;21729;58.392;15.656;2023-05-02T06:04:19;4.60;1.00
35607;DHT22;21729;58.392;15.656;2023-05-02T06:06:46;4.90;1.00
35607;DHT22;21729;58.392;15.656;2023-05-02T06:09:15;4.90;1.00
35607;DHT22;21729;58.392;15.656;2023-05-02T06:11:44;5.10;1.00
35607;DHT22;21729;58.392;15.656;2023-05-02T06:14:11;5.80;1.00
35607;DHT22;21729;58.392;15.656;2023-05-02T06:16:40;5.80;99.90
35607;DHT22;21729;58.392;15.656;2023-05-02T06:19:08;6.30;99.90
35607;DHT22;21729;58.392;15.656;2023-05-02T06:21:35;7.10;99.90
35607;DHT22;21729;58.392;15.656;2023-05-02T06:24:03;6.60;99.90
35607;DHT22;21729;58.392;15.656;2023-05-02T06:26:31;6.80;99.90
35607;DHT22;21729;58.392;15.656;2023-05-02T06:28:59;6.80;99.90
35607;DHT22;21729;58.392;15.656;2023-05-02T06:31:27;6.20;99.90
35607;DHT22;21729;58.392;15.656;2023-05-02T06:33:54;5.70;99.90
35607;DHT22;21729;58.392;15.656;2023-05-02T06:36:21;5.40;99.90
35607;DHT22;21729;58.392;15.656;2023-05-02T06:38:48;5.40;99.90
35607;DHT22;21729;58.392;15.656;2023-05-02T06:41:15;5.20;99.90
35607;DHT22;21729;58.392;15.656;2023-05-02T06:43:43;5.20;1.00
35607;DHT22;21729;58.392;15.656;2023-05-02T06:46:12;5.20;1.00
35607;DHT22;21729;58.392;15.656;2023-05-02T06:48:39;5.40;1.00
35607;DHT22;21729;58.392;15.656;2023-05-02T06:51:06;5.90;1.00
35607;DHT22;21729;58.392;15.656;2023-05-02T06:53:33;5.60;99.90
35607;DHT22;21729;58.392;15.656;2023-05-02T06:56:01;7.40;99.90
35607;DHT22;21729;58.392;15.656;2023-05-02T06:58:30;6.20;99.90
35607;DHT22;21729;58.392;15.656;2023-05-02T07:00:57;7.80;99.90
35607;DHT22;21729;58.392;15.656;2023-05-02T07:03:25;7.10;99.90
35607;DHT22;21729;58.392;15.656;2023-05-02T07:05:53;6.40;99.90
35607;DHT22;21729;58.392;15.656;2023-05-02T07:08:20;9.30;99.90
35607;DHT22;21729;58.392;15.656;2023-05-02T07:10:49;7.90;99.90
35607;DHT22;21729;58.392;15.656;2023-05-02T07:13:16;7.00;99.90
35607;DHT22;21729;58.392;15.656;2023-05-02T07:15:43;6.60;99.90
35607;DHT22;21729;58.392;15.656;2023-05-02T07:18:10;6.40;99.90
35607;DHT22;21729;58.392;15.656;2023-05-02T07:20:39;6.30;99.90
35607;DHT22;21729;58.392;15.656;2023-05-02T07:23:07;7.30;99.90
35607;DHT22;21729;58.392;15.656;2023-05-02T07:25:34;6.90;99.90
35607;DHT22;21729;58.392;15.656;2023-05-02T07:28:02;7.10;99.90
35607;DHT22;21729;58.392;15.656;2023-05-02T07:30:30;6.60;99.90
35607;DHT22;21729;58.392;15.656;2023-05-02T07:32:57;6.30;99.90
35607;DHT22;21729;58.392;15.656;2023-05-02T07:35:24;6.10;99.90
35607;DHT22;21729;58.392;15.656;2023-05-02T07:37:53;5.80;99.90
35607;DHT22;21729;58.392;15.656;2023-05-02T07:40:20;6.00;99.90
35607;DHT22;21729;58.392;15.656;2023-05-02T07:42:47;5.90;99.90
35607;DHT22;21729;58.392;15.656;2023-05-02T07:45:15;5.90;99.90
35607;DHT22;21729;58.392;15.656;2023-05-02T07:47:44;5.80;99.90
35607;DHT22;21729;58.392;15.656;2023-05-02T07:50:11;5.90;99.90
35607;DHT22;21729;58.392;15.656;2023-05-02T07:52:38;6.10;99.90
35607;DHT22;21729;58.392;15.656;2023-05-02T07:55:08;6.30;99.90
35607;DHT22;21729;58.392;15.656;2023-05-02T07:57:35;6.50;99.90
35607;DHT22;21729;58.392;15.656;2023-05-02T08:00:03;6.60;99.90
35607;DHT22;21729;58.392;15.656;2023-05-02T08:02:32;7.20;99.90
35607;DHT22;21729;58.392;15.656;2023-05-02T08:05:01;6.80;99.90
35607;DHT22;21729;58.392;15.656;2023-05-02T08:07:28;6.80;99.90
35607;DHT22;21729;58.392;15.656;2023-05-02T08:09:55;7.70;99.90
35607;DHT22;21729;58.392;15.656;2023-05-02T08:12:24;7.00;99.90
35607;DHT22;21729;58.392;15.656;2023-05-02T08:14:51;7.30;99.90
35607;DHT22;21729;58.392;15.656;2023-05-02T08:17:18;9.10;99.90
35607;DHT22;21729;58.392;15.656;2023-05-02T08:19:46;7.90;57.60
35607;DHT22;21729;58.392;15.656;2023-05-02T08:22:13;8.20;99.90
35607;DHT22;21729;58.392;15.656;2023-05-02T08:24:40;7.90;81.00
35607;DHT22;21729;58.392;15.656;2023-05-02T08:27:07;8.20;99.90
35607;DHT22;21729;58.392;15.656;2023-05-02T08:29:35;10.70;1.00
35607;DHT22;21729;58.392;15.656;2023-05-02T08:32:02;10.10;1.00
35607;DHT22;21729;58.392;15.656;2023-05-02T08:34:30;10.00;1.00
35607;DHT22;21729;58.392;15.656;2023-05-02T08:36:58;9.20;1.00
35607;DHT22;21729;58.392;15.656;2023-05-02T08:39:25;9.00;1.00
35607;DHT22;21729;58.392;15.656;2023-05-02T08:41:52;8.60;1.00
35607;DHT22;21729;58.392;15.656;2023-05-02T08:44:20;8.30;1.00
35607;DHT22;21729;58.392;15.656;2023-05-02T08:46:49;8.10;1.00
35607;DHT22;21729;58.392;15.656;2023-05-02T08:49:17;8.50;13.20
35607;DHT22;21729;58.392;15.656;2023-05-02T08:51:45;9.10;1.00
35607;DHT22;21729;58.392;15.656;2023-05-02T08:54:16;9.60;1.00
35607;DHT22;21729;58.392;15.656;2023-05-02T08:56:44;9.10;7.20
35607;DHT22;21729;58.392;15.656;2023-05-02T08:59:12;8.80;1.00
35607;DHT22;21729;58.392;15.656;2023-05-02T09:01:40;8.40;21.10
35607;DHT22;21729;58.392;15.656;2023-05-02T09:04:12;8.20;1.00
35607;DHT22;21729;58.392;15.656;2023-05-02T09:06:39;8.20;19.60
35607;DHT22;21729;58.392;15.656;2023-05-02T09:09:06;8.40;81.20
35607;DHT22;21729;58.392;15.656;2023-05-02T09:11:34;10.50;1.00
35607;DHT22;21729;58.392;15.656;2023-05-02T09:14:01;11.00;1.00
35607;DHT22;21729;58.392;15.656;2023-05-02T09:16:39;10.20;1.00
35607;DHT22;21729;58.392;15.656;2023-05-02T09:19:06;9.80;1.00
35607;DHT22;21729;58.392;15.656;2023-05-02T09:21:39;9.70;1.00
35607;DHT22;21729;58.392;15.656;2023-05-02T09:24:15;9.50;1.00
35607;DHT22;21729;58.392;15.656;2023-05-02T09:26:43;11.20;1.00
35607;DHT22;21729;58.392;15.656;2023-05-02T09:29:22;13.50;1.00
35607;DHT22;21729;58.392;15.656;2023-05-02T09:31:50;14.80;99.90
35607;DHT22;21729;58.392;15.656;2023-05-02T09:34:17;14.80;99.90
35607;DHT22;21729;58.392;15.656;2023-05-02T09:36:47;12.20;99.90
35607;DHT22;21729;58.392;15.656;2023-05-02T09:39:17;10.50;99.90
35607;DHT22;21729;58.392;15.656;2023-05-02T09:41:46;12.50;99.90
35607;DHT22;21729;58.392;15.656;2023-05-02T09:44:14;11.30;99.90
35607;DHT22;21729;58.392;15.656;2023-05-02T09:46:44;13.00;99.90
35607;DHT22;21729;58.392;15.656;2023-05-02T09:49:11;12.00;99.90
35607;DHT22;21729;58.392;15.656;2023-05-02T09:51:40;10.30;1.00
35607;DHT22;21729;58.392;15.656;2023-05-02T09:54:10;9.70;1.00
35607;DHT22;21729;58.392;15.656;2023-05-02T09:56:52;10.00;1.00
35607;DHT22;21729;58.392;15.656;2023-05-02T09:59:21;9.70;1.00
35607;DHT22;21729;58.392;15.656;2023-05-02T10:01:54;9.80;1.00
35607;DHT22;21729;58.392;15.656;2023-05-02T10:04:23;9.60;1.00
35607;DHT22;21729;58.392;15.656;2023-05-02T10:06:52;9.70;1.00
35607;DHT22;21729;58.392;15.656;2023-05-02T10:09:21;9.60;1.00
35607;DHT22;21729;58.392;15.656;2023-05-02T10:11:51;9.80;1.00
35607;DHT22;21729;58.392;15.656;2023-05-02T10:14:20;10.70;1.00
35607;DHT22;21729;58.392;15.656;2023-05-02T10:16:54;11.20;1.00
35607;DHT22;21729;58.392;15.656;2023-05-02T10:19:29;11.40;99.90
35607;DHT22;21729;58.392;15.656;2023-05-02T10:21:57;10.30;1.00
35607;DHT22;21729;58.392;15.656;2023-05-02T10:24:26;9.60;1.00
35607;DHT22;21729;58.392;15.656;2023-05-02T10:26:54;9.70;1.00
35607;DHT22;21729;58.392;15.656;2023-05-02T10:29:21;9.50;1.00
35607;DHT22;21729;58.392;15.656;2023-05-02T10:31:49;9.30;1.00
35607;DHT22;21729;58.392;15.656;2023-05-02T10:34:18;9.80;1.00
35607;DHT22;21729;58.392;15.656;2023-05-02T10:36:45;10.30;1.00
35607;DHT22;21729;58.392;15.656;2023-05-02T10:39:13;10.50;1.00
35607;DHT22;21729;58.392;15.656;2023-05-02T10:41:42;11.10;1.00
35607;DHT22;21729;58.392;15.656;2023-05-02T10:44:10;11.00;1.00
35607;DHT22;21729;58.392;15.656;2023-05-02T10:46:38;10.80;1.00
35607;DHT22;21729;58.392;15.656;2023-05-02T10:49:07;9.90;1.00
35607;DHT22;21729;58.392;15.656;2023-05-02T10:51:36;10.30;1.00
35607;DHT22;21729;58.392;15.656;2023-05-02T10:54:20;10.90;1.00
35607;DHT22;21729;58.392;15.656;2023-05-02T10:57:07;10.50;1.00
35607;DHT22;21729;58.392;15.656;2023-05-02T10:59:36;10.60;1.00
35607;DHT22;21729;58.392;15.656;2023-05-02T11:02:04;10.80;1.00
35607;DHT22;21729;58.392;15.656;2023-05-02T11:05:00;10.90;99.90
35607;DHT22;21729;58.392;15.656;2023-05-02T11:07:28;9.80;1.00
35607;DHT22;21729;58.392;15.656;2023-05-02T11:10:24;9.90;99.90
35607;DHT22;21729;58.392;15.656;2023-05-02T11:12:54;10.90;1.00
35607;DHT22;21729;58.392;15.656;2023-05-02T11:15:53;11.10;99.90
35607;DHT22;21729;58.392;15.656;2023-05-02T11:18:20;11.00;99.90
35607;DHT22;21729;58.392;15.656;2023-05-02T11:20:48;11.30;99.90
35607;DHT22;21729;58.392;15.656;2023-05-02T11:23:22;10.70;99.90
35607;DHT22;21729;58.392;15.656;2023-05-02T11:25:52;10.80;99.90
35607;DHT22;21729;58.392;15.656;2023-05-02T11:28:41;10.40;99.90
35607;DHT22;21729;58.392;15.656;2023-05-02T11:34:10;10.80;99.90
35607;DHT22;21729;58.392;15.656;2023-05-02T11:36:37;10.20;99.90
35607;DHT22;21729;58.392;15.656;2023-05-02T11:39:17;10.40;99.90
35607;DHT22;21729;58.392;15.656;2023-05-02T11:41:45;10.80;99.90
35607;DHT22;21729;58.392;15.656;2023-05-02T11:44:17;10.80;99.90
35607;DHT22;21729;58.392;15.656;2023-05-02T11:46:44;11.00;99.90
35607;DHT22;21729;58.392;15.656;2023-05-02T11:49:11;11.40;99.90
35607;DHT22;21729;58.392;15.656;2023-05-02T11:51:39;10.70;99.90
35607;DHT22;21729;58.392;15.656;2023-05-02T11:54:06;10.20;99.90
35607;DHT22;21729;58.392;15.656;2023-05-02T11:56:35;9.90;99.90
35607;DHT22;21729;58.392;15.656;2023-05-02T11:59:02;9.70;99.90
35607;DHT22;21729;58.392;15.656;2023-05-02T12:01:31;9.70;99.90
35607;DHT22;21729;58.392;15.656;2023-05-02T12:04:02;9.60;99.90
35607;DHT22;21729;58.392;15.656;2023-05-02T12:06:29;10.20;1.00
35607;DHT22;21729;58.392;15.656;2023-05-02T12:09:06;10.30;99.90
35607;DHT22;21729;58.392;15.656;2023-05-02T12:11:34;10.40;99.90
35607;DHT22;21729;58.392;15.656;2023-05-02T12:14:03;10.40;99.90
35607;DHT22;21729;58.392;15.656;2023-05-02T12:16:32;10.40;99.90
35607;DHT22;21729;58.392;15.656;2023-05-02T12:19:00;9.90;99.90
35607;DHT22;21729;58.392;15.656;2023-05-02T12:21:27;10.10;99.90
35607;DHT22;21729;58.392;15.656;2023-05-02T12:23:59;10.30;99.90
35607;DHT22;21729;58.392;15.656;2023-05-02T12:26:26;10.20;99.90
35607;DHT22;21729;58.392;15.656;2023-05-02T12:28:55;11.10;99.90
35607;DHT22;21729;58.392;15.656;2023-05-02T12:31:23;10.80;99.90
35607;DHT22;21729;58.392;15.656;2023-05-02T12:33:53;10.60;99.90
35607;DHT22;21729;58.392;15.656;2023-05-02T12:36:22;10.80;99.90
35607;DHT22;21729;58.392;15.656;2023-05-02T12:38:50;10.90;99.90
35607;DHT22;21729;58.392;15.656;2023-05-02T12:41:31;10.70;99.90
35607;DHT22;21729;58.392;15.656;2023-05-02T12:43:58;10.70;99.90
35607;DHT22;21729;58.392;15.656;2023-05-02T12:46:26;10.50;99.90
35607;DHT22;21729;58.392;15.656;2023-05-02T12:49:05;10.50;99.90
35607;DHT22;21729;58.392;15.656;2023-05-02T12:51:34;10.60;99.90
35607;DHT22;21729;58.392;15.656;2023-05-02T12:54:01;10.50;99.90
35607;DHT22;21729;58.392;15.656;2023-05-02T12:56:29;10.50;99.90
35607;DHT22;21729;58.392;15.656;2023-05-02T12:58:58;10.60;99.90
35607;DHT22;21729;58.392;15.656;2023-05-02T13:01:29;10.40;99.90
35607;DHT22;21729;58.392;15.656;2023-05-02T13:03:58;10.30;99.90
35607;DHT22;21729;58.392;15.656;2023-05-02T13:06:26;10.10;99.90
35607;DHT22;21729;58.392;15.656;2023-05-02T13:08:54;10.20;99.90
35607;DHT22;21729;58.392;15.656;2023-05-02T13:11:21;10.10;99.90
35607;DHT22;21729;58.392;15.656;2023-05-02T13:13:48;9.90;99.90
35607;DHT22;21729;58.392;15.656;2023-05-02T13:16:15;10.20;99.90
35607;DHT22;21729;58.392;15.656;2023-05-02T13:18:43;10.20;99.90
35607;DHT22;21729;58.392;15.656;2023-05-02T13:21:10;10.30;99.90
35607;DHT22;21729;58.392;15.656;2023-05-02T13:23:38;10.20;99.90
35607;DHT22;21729;58.392;15.656;2023-05-02T13:26:05;10.10;99.90
35607;DHT22;21729;58.392;15.656;2023-05-02T13:28:33;10.00;99.90
35607;DHT22;21729;58.392;15.656;2023-05-02T13:31:02;10.10;99.90
35607;DHT22;21729;58.392;15.656;2023-05-02T13:33:29;10.20;99.90
35607;DHT22;21729;58.392;15.656;2023-05-02T13:35:56;10.10;99.90
35607;DHT22;21729;58.392;15.656;2023-05-02T13:38:24;10.20;99.90
35607;DHT22;21729;58.392;15.656;2023-05-02T13:40:52;10.50;99.90
35607;DHT22;21729;58.392;15.656;2023-05-02T13:43:20;10.40;99.90
35607;DHT22;21729;58.392;15.656;2023-05-02T13:45:47;10.30;99.90
35607;DHT22;21729;58.392;15.656;2023-05-02T13:48:14;10.30;99.90
35607;DHT22;21729;58.392;15.656;2023-05-02T13:50:41;10.20;99.90
35607;DHT22;21729;58.392;15.656;2023-05-02T13:53:08;9.90;99.90
35607;DHT22;21729;58.392;15.656;2023-05-02T13:55:36;9.90;99.90
35607;DHT22;21729;58.392;15.656;2023-05-02T13:58:04;9.90;99.90
35607;DHT22;21729;58.392;15.656;2023-05-02T14:00:31;10.00;99.90
35607;DHT22;21729;58.392;15.656;2023-05-02T14:02:59;10.00;99.90
35607;DHT22;21729;58.392;15.656;2023-05-02T14:05:26;9.80;99.90
35607;DHT22;21729;58.392;15.656;2023-05-02T14:07:54;9.80;99.90
35607;DHT22;21729;58.392;15.656;2023-05-02T14:10:21;9.70;99.90
35607;DHT22;21729;58.392;15.656;2023-05-02T14:12:48;9.60;99.90
35607;DHT22;21729;58.392;15.656;2023-05-02T14:15:16;9.70;99.90
35607;DHT22;21729;58.392;15.656;2023-05-02T14:17:44;9.70;99.90
35607;DHT22;21729;58.392;15.656;2023-05-02T14:20:11;9.60;99.90
35607;DHT22;21729;58.392;15.656;2023-05-02T14:22:38;9.70;99.90
35607;DHT22;21729;58.392;15.656;2023-05-02T14:25:06;9.60;99.90
35607;DHT22;21729;58.392;15.656;2023-05-02T14:27:34;9.50;99.90
35607;DHT22;21729;58.392;15.656;2023-05-02T14:30:01;9.40;99.90
35607;DHT22;21729;58.392;15.656;2023-05-02T14:32:29;9.40;99.90
35607;DHT22;21729;58.392;15.656;2023-05-02T14:34:56;9.50;99.90
35607;DHT22;21729;58.392;15.656;2023-05-02T14:37:24;9.50;99.90
35607;DHT22;21729;58.392;15.656;2023-05-02T14:39:51;9.60;99.90
35607;DHT22;21729;58.392;15.656;2023-05-02T14:42:20;9.50;99.90
35607;DHT22;21729;58.392;15.656;2023-05-02T14:44:48;9.50;99.90
35607;DHT22;21729;58.392;15.656;2023-05-02T14:47:15;9.60;99.90
35607;DHT22;21729;58.392;15.656;2023-05-02T14:49:43;9.50;99.90
35607;DHT22;21729;58.392;15.656;2023-05-02T14:52:10;9.50;99.90
35607;DHT22;21729;58.392;15.656;2023-05-02T14:54:37;9.60;99.90
35607;DHT22;21729;58.392;15.656;2023-05-02T14:57:04;9.60;99.90
35607;DHT22;21729;58.392;15.656;2023-05-02T14:59:33;9.60;99.90
35607;DHT22;21729;58.392;15.656;2023-05-02T15:02:02;9.50;99.90
35607;DHT22;21729;58.392;15.656;2023-05-02T15:04:29;9.60;99.90
35607;DHT22;21729;58.392;15.656;2023-05-02T15:06:59;9.60;99.90
35607;DHT22;21729;58.392;15.656;2023-05-02T15:09:26;9.40;99.90
35607;DHT22;21729;58.392;15.656;2023-05-02T15:11:54;9.40;99.90
35607;DHT22;21729;58.392;15.656;2023-05-02T15:14:21;9.50;99.90
35607;DHT22;21729;58.392;15.656;2023-05-02T15:16:48;9.50;99.90
35607;DHT22;21729;58.392;15.656;2023-05-02T15:19:15;9.40;99.90
35607;DHT22;21729;58.392;15.656;2023-05-02T15:21:42;9.30;99.90
35607;DHT22;21729;58.392;15.656;2023-05-02T15:24:12;9.40;99.90
35607;DHT22;21729;58.392;15.656;2023-05-02T15:26:39;9.40;99.90
35607;DHT22;21729;58.392;15.656;2023-05-02T15:29:07;9.40;99.90
35607;DHT22;21729;58.392;15.656;2023-05-02T15:31:34;9.30;99.90
35607;DHT22;21729;58.392;15.656;2023-05-02T15:34:01;9.40;99.90
35607;DHT22;21729;58.392;15.656;2023-05-02T15:36:29;9.40;99.90
35607;DHT22;21729;58.392;15.656;2023-05-02T15:38:57;9.40;99.90
35607;DHT22;21729;58.392;15.656;2023-05-02T15:41:26;9.40;99.90
35607;DHT22;21729;58.392;15.656;2023-05-02T15:43:53;9.40;99.90